Flight Track Log - Related Links

Times and Time Zones

All times are in EDT time to prevent confusion due to time zone crossing. See the JAL89 flight status page for this flight to view local times or setup timezone preferences in your user account.

Time Position Orientation Groundspeed Altitude Reporting Facility
EDT Latitude Longitude Course Direction KTS MPH feet Rate Location/Type
Sun 12:26:03 AM 21.3000 -157.8833 282° West 190 219 1,400  Level Honolulu Center
Sun 12:27:03 AM 21.2500 -157.8667 163° South 200 230 3,700 2,000 Climbing Honolulu Center
Sun 12:28:03 AM 21.1833 -157.8833 193° South 260 299 5,400 2,331 Climbing Honolulu Center
Sun 12:29:04 AM 21.1833 -157.9667 270° West 290 334 8,400 2,876 Climbing Honolulu Center
Sun 12:30:00 AM 21.3055 -158.5553 285° West  Level FlightAware Approximate
Sun 12:30:04 AM 21.1833 -158.0500 270° West 300 345 11,200  Level Honolulu Center
Sun 12:31:00 AM 21.3361 -158.6803 282° West  Level FlightAware Approximate
Sun 12:31:04 AM 21.1833 -158.1333 270° West 300 345 13,900  Level Honolulu Center
Sun 12:32:04 AM 21.1667 -158.2333 260° West 300 345 16,300 2,300 Climbing Honolulu Center
Sun 12:33:04 AM 21.1667 -158.3167 270° West 310 357 18,500 2,050 Climbing Honolulu Center
Sun 12:34:04 AM 21.1833 -158.4167 280° West 310 357 20,400 1,339 Climbing Honolulu Center
Sun 12:35:05 AM 21.2000 -158.5167 280° West 350 403 21,200 1,190 Climbing Honolulu Center
Sun 12:36:05 AM 21.2167 -158.6000 282° West 380 437 22,800 1,700 Climbing Honolulu Center
Sun 12:37:05 AM 21.2500 -158.7167 287° West 380 437 24,600 1,600 Climbing Honolulu Center
Sun 12:38:05 AM 21.2833 -158.8333 287° West 390 449 26,000 1,450 Climbing Honolulu Center
Sun 12:39:05 AM 21.3000 -158.9500 279° West 400 460 27,500 1,500 Climbing Honolulu Center
Sun 12:40:05 AM 21.3333 -159.0667 287° West 410 472 29,000 1,450 Climbing Honolulu Center
Sun 12:41:05 AM 21.3667 -159.2000 285° West 410 472 30,400 1,350 Climbing Honolulu Center
Sun 12:42:05 AM 21.3833 -159.3000 280° West 420 483 31,700 1,350 Climbing Honolulu Center
Sun 12:43:05 AM 21.4167 -159.4500 283° West 430 495 33,100 1,450 Climbing Honolulu Center
Sun 12:44:05 AM 21.4500 -159.5667 287° West 420 483 34,600 1,091 Climbing Honolulu Center
Sun 12:45:06 AM 21.4667 -159.7000 278° West 420 483 35,300 694 Climbing Honolulu Center
Sun 12:46:06 AM 21.5000 -159.8000 290° West 440 506 36,000 350 Climbing Honolulu Center
Sun 12:47:06 AM 21.5333 -159.9167 287° West 430 495 36,000  Level Honolulu Center
Sun 12:48:06 AM 21.5500 -160.0500 278° West 440 506 36,000  Level Honolulu Center
Sun 12:49:06 AM 21.5833 -160.1833 285° West 430 495 36,000  Level Honolulu Center
Sun 12:50:06 AM 21.6167 -160.3000 287° West 440 506 36,000  Level Honolulu Center
Sun 12:51:06 AM 21.6500 -160.4333 285° West 440 506 36,000  Level Honolulu Center
Sun 12:52:06 AM 21.6667 -160.5667 278° West 440 506 36,000  Level Honolulu Center
Sun 12:53:06 AM 21.7000 -160.6833 287° West 440 506 36,000  Level Honolulu Center
Sun 12:54:07 AM 21.7333 -160.8167 285° West 440 506 36,000  Level Honolulu Center
Sun 12:55:06 AM 21.7500 -160.9500 278° West 440 506 36,000  Level Honolulu Center
Sun 12:56:06 AM 21.7833 -161.0667 287° West 440 506 36,000  Level Honolulu Center
Sun 12:57:07 AM 21.8167 -161.2000 285° West 450 518 36,000  Level Honolulu Center
Sun 12:58:07 AM 21.8333 -161.3333 278° West 440 506 36,000  Level Honolulu Center
Sun 12:59:07 AM 21.8667 -161.4667 285° West 440 506 36,000  Level Honolulu Center
Sun 01:00:07 AM 21.9000 -161.6000 285° West 440 506 36,000  Level Honolulu Center
Sun 01:01:07 AM 21.9167 -161.7167 279° West 450 518 36,000 700 Level Honolulu Center
Sun 01:02:07 AM 21.9333 -161.8500 278° West 440 506 37,400 992 Climbing Honolulu Center
Sun 01:03:08 AM 21.9500 -161.9833 278° West 440 506 38,000 38 Climbing Honolulu Center
Sun 01:05:00 AM 21.9830 -162.2225 279° West  Level FlightAware Approximate
Sun 01:12:00 AM 22.1036 -163.1206 278° West  Level FlightAware Approximate
Sun 01:13:00 AM 22.1205 -163.2490 278° West  Level FlightAware Approximate
Sun 01:14:00 AM 22.1372 -163.3775 278° West  Level FlightAware Approximate
Sun 01:15:00 AM 22.1539 -163.5060 278° West  Level FlightAware Approximate
Sun 01:16:00 AM 22.1702 -163.6333 278° West  Level FlightAware Approximate
Sun 01:17:00 AM 22.1865 -163.7608 278° West  Level FlightAware Approximate
Sun 01:17:57 AM 22.2000 -163.9167 279° West 458 527 38,000  Level Oakland Oceanic (ODAPS)
Sun 01:18:00 AM 22.2000 -163.8884 270° West  Level FlightAware Approximate
Sun 01:19:00 AM 22.2126 -164.0168 279° West  Level FlightAware Approximate
Sun 01:20:00 AM 22.2319 -164.1447 279° West  Level FlightAware Approximate
Sun 01:21:00 AM 22.2510 -164.2725 279° West  Level FlightAware Approximate
Sun 01:22:00 AM 22.2700 -164.4005 279° West  Level FlightAware Approximate
Sun 01:23:00 AM 22.2890 -164.5284 279° West  Level FlightAware Approximate
Sun 01:24:00 AM 22.3225 -164.7419 279° West 458 527 38,000  Level FlightAware Transoceanic
Sun 01:25:00 AM 22.3425 -164.8796 279° West 458 527 38,000  Level FlightAware Transoceanic
Sun 01:25:43 AM 22.3667 -165.0000 279° West 458 527 38,000  Level Oakland Oceanic (ODAPS)
Sun 01:26:00 AM 22.3624 -165.0173 279° West 458 527 38,000  Level FlightAware Transoceanic
Sun 01:27:00 AM 22.3822 -165.1551 279° West 458 527 38,000  Level FlightAware Transoceanic
Sun 01:28:00 AM 22.4019 -165.2929 279° West 458 527 38,000  Level FlightAware Transoceanic
Sun 01:29:00 AM 22.4214 -165.4307 279° West 458 527 38,000  Level FlightAware Transoceanic
Sun 01:30:00 AM 22.4408 -165.5686 279° West 458 527 38,000  Level FlightAware Transoceanic
Sun 01:31:00 AM 22.4639 -165.6916 279° West 458 527 38,000  Level FlightAware Transoceanic
Sun 01:32:00 AM 22.4830 -165.8300 278° West 458 527 38,000  Level FlightAware Transoceanic
Sun 01:33:00 AM 22.5019 -165.9685 278° West 458 527 38,000  Level FlightAware Transoceanic
Sun 01:34:00 AM 22.5208 -166.1070 278° West 458 527 38,000  Level FlightAware Transoceanic
Sun 01:35:00 AM 22.5395 -166.2456 278° West 458 527 38,000  Level FlightAware Transoceanic
Sun 01:36:00 AM 22.5581 -166.3842 278° West 458 527 38,000  Level FlightAware Transoceanic
Sun 01:37:00 AM 22.5766 -166.5228 278° West 458 527 38,000  Level FlightAware Transoceanic
Sun 01:38:00 AM 22.5950 -166.6615 278° West 458 527 38,000  Level FlightAware Transoceanic
Sun 01:39:00 AM 22.6133 -166.8002 278° West 458 527 38,000  Level FlightAware Transoceanic
Sun 01:40:00 AM 22.6314 -166.9389 278° West 458 527 38,000  Level FlightAware Transoceanic
Sun 01:41:00 AM 22.6494 -167.0777 278° West 458 527 38,000  Level FlightAware Transoceanic
Sun 01:42:00 AM 22.6673 -167.2165 278° West 458 527 38,000  Level FlightAware Transoceanic
Sun 01:43:00 AM 22.6851 -167.3553 278° West 458 527 38,000  Level FlightAware Transoceanic
Sun 01:44:00 AM 22.7027 -167.4942 278° West 458 527 38,000  Level FlightAware Transoceanic
Sun 01:45:00 AM 22.7203 -167.6331 278° West 458 527 38,000  Level FlightAware Transoceanic
Sun 01:46:00 AM 22.7377 -167.7721 278° West 458 527 38,000  Level FlightAware Transoceanic
Sun 01:47:00 AM 22.7550 -167.9111 278° West 458 527 38,000  Level FlightAware Transoceanic
Sun 01:48:00 AM 22.7722 -168.0501 278° West 458 527 38,000  Level FlightAware Transoceanic
Sun 01:49:00 AM 22.7892 -168.1892 278° West 458 527 38,000  Level FlightAware Transoceanic
Sun 01:50:00 AM 22.8062 -168.3283 277° West 458 527 38,000  Level FlightAware Transoceanic
Sun 01:51:00 AM 22.8230 -168.4674 277° West 458 527 38,000  Level FlightAware Transoceanic
Sun 01:52:00 AM 22.8397 -168.6065 277° West 458 527 38,000  Level FlightAware Transoceanic
Sun 01:52:23 AM 22.8500 -168.6333 277° West 464 534 38,000  Level Oakland Oceanic (ODAPS)
Sun 01:53:00 AM 22.8563 -168.7457 277° West 458 527 38,000  Level FlightAware Transoceanic
Sun 01:54:00 AM 22.8727 -168.8850 277° West 458 527 38,000  Level FlightAware Transoceanic
Sun 01:55:00 AM 22.8891 -169.0242 277° West 458 527 38,000  Level FlightAware Transoceanic
Sun 01:56:00 AM 22.9053 -169.1635 277° West 458 527 38,000  Level FlightAware Transoceanic
Sun 01:57:00 AM 22.9214 -169.3029 277° West 458 527 38,000  Level FlightAware Transoceanic
Sun 01:58:00 AM 22.9414 -169.4530 277° West 464 534 38,000  Level FlightAware Transoceanic
Sun 01:59:00 AM 22.9562 -169.5897 277° West 464 534 38,000  Level FlightAware Transoceanic
Sun 02:00:00 AM 22.9709 -169.7264 277° West 464 534 38,000  Level FlightAware Transoceanic
Sun 02:01:00 AM 22.9855 -169.8632 277° West 464 534 38,000  Level FlightAware Transoceanic
Sun 02:02:00 AM 23.0000 -170.0000 284° West 464 534 38,000  Level FlightAware Transoceanic
Sun 02:02:24 AM 23.0000 -170.0000 284° West 467 537 38,000  Level Oakland Oceanic (ODAPS)
Sun 02:03:00 AM 23.0321 -170.1367 284° West 464 534 38,000  Level FlightAware Transoceanic
Sun 02:04:00 AM 23.0642 -170.2735 284° West 464 534 38,000  Level FlightAware Transoceanic
Sun 02:05:00 AM 23.0961 -170.4103 284° West 464 534 38,000  Level FlightAware Transoceanic
Sun 02:06:00 AM 23.1278 -170.5472 284° West 464 534 38,000  Level FlightAware Transoceanic
Sun 02:07:00 AM 23.1595 -170.6841 284° West 464 534 38,000  Level FlightAware Transoceanic
Sun 02:08:00 AM 23.1911 -170.8211 284° West 467 537 38,000  Level FlightAware Transoceanic
Sun 02:09:00 AM 23.2225 -170.9582 284° West 467 537 38,000  Level FlightAware Transoceanic
Sun 02:10:00 AM 23.2538 -171.0954 284° West 467 537 38,000  Level FlightAware Transoceanic
Sun 02:11:00 AM 23.2850 -171.2326 284° West 467 537 38,000  Level FlightAware Transoceanic
Sun 02:12:00 AM 23.3161 -171.3698 284° West 467 537 38,000  Level FlightAware Transoceanic
Sun 02:13:00 AM 23.3470 -171.5072 284° West 467 537 38,000  Level FlightAware Transoceanic
Sun 02:14:00 AM 23.3778 -171.6446 284° West 467 537 38,000  Level FlightAware Transoceanic
Sun 02:15:00 AM 23.4086 -171.7820 284° West 467 537 38,000  Level FlightAware Transoceanic
Sun 02:16:00 AM 23.4391 -171.9196 284° West 467 537 38,000  Level FlightAware Transoceanic
Sun 02:17:00 AM 23.4696 -172.0572 284° West 467 537 38,000  Level FlightAware Transoceanic
Sun 02:18:00 AM 23.5000 -172.1948 283° West 467 537 38,000  Level FlightAware Transoceanic
Sun 02:19:00 AM 23.5302 -172.3325 283° West 467 537 38,000  Level FlightAware Transoceanic
Sun 02:19:04 AM 23.5167 -172.2833 283° West 471 542 38,000  Level Oakland Oceanic (ODAPS)
Sun 02:20:00 AM 23.5603 -172.4703 283° West 467 537 38,000  Level FlightAware Transoceanic
Sun 02:21:00 AM 23.5903 -172.6082 283° West 467 537 38,000  Level FlightAware Transoceanic
Sun 02:22:00 AM 23.6202 -172.7461 283° West 467 537 38,000  Level FlightAware Transoceanic
Sun 02:23:00 AM 23.6499 -172.8840 283° West 467 537 38,000  Level FlightAware Transoceanic
Sun 02:24:00 AM 23.6795 -173.0221 283° West 467 537 38,000  Level FlightAware Transoceanic
Sun 02:25:00 AM 23.6972 -173.1162 283° West 471 542 38,000  Level FlightAware Transoceanic
Sun 02:26:00 AM 23.7269 -173.2552 283° West 471 542 38,000  Level FlightAware Transoceanic
Sun 02:27:00 AM 23.7564 -173.3943 283° West 471 542 38,000  Level FlightAware Transoceanic
Sun 02:28:00 AM 23.7858 -173.5335 283° West 471 542 38,000  Level FlightAware Transoceanic
Sun 02:29:00 AM 23.8151 -173.6727 283° West 471 542 38,000  Level FlightAware Transoceanic
Sun 02:30:00 AM 23.8442 -173.8120 283° West 471 542 38,000  Level FlightAware Transoceanic
Sun 02:31:00 AM 23.8733 -173.9514 283° West 471 542 38,000  Level FlightAware Transoceanic
Sun 02:32:00 AM 23.9022 -174.0908 283° West 471 542 38,000  Level FlightAware Transoceanic
Sun 02:33:00 AM 23.9310 -174.2302 283° West 471 542 38,000  Level FlightAware Transoceanic
Sun 02:34:00 AM 23.9596 -174.3698 283° West 471 542 38,000  Level FlightAware Transoceanic
Sun 02:35:00 AM 23.9881 -174.5094 283° West 471 542 38,000  Level FlightAware Transoceanic
Sun 02:36:00 AM 24.0165 -174.6490 283° West 471 542 38,000  Level FlightAware Transoceanic
Sun 02:37:00 AM 24.0448 -174.7888 282° West 471 542 38,000  Level FlightAware Transoceanic
Sun 02:38:00 AM 24.0730 -174.9285 282° West 471 542 38,000  Level FlightAware Transoceanic
Sun 02:39:00 AM 24.1010 -175.0684 282° West 471 542 38,000  Level FlightAware Transoceanic
Sun 02:40:00 AM 24.1289 -175.2083 282° West 471 542 38,000  Level FlightAware Transoceanic
Sun 02:41:00 AM 24.1566 -175.3482 282° West 471 542 38,000  Level FlightAware Transoceanic
Sun 02:42:00 AM 24.1843 -175.4883 282° West 471 542 38,000  Level FlightAware Transoceanic
Sun 02:43:00 AM 24.2118 -175.6284 282° West 471 542 38,000  Level FlightAware Transoceanic
Sun 02:44:00 AM 24.2392 -175.7685 282° West 471 542 38,000  Level FlightAware Transoceanic
Sun 02:45:00 AM 24.2664 -175.9087 282° West 471 542 38,000  Level FlightAware Transoceanic
Sun 02:45:45 AM 24.2833 -175.9667 282° West 468 539 38,000  Level Oakland Oceanic (ODAPS)
Sun 02:46:00 AM 24.2936 -176.0490 282° West 471 542 38,000  Level FlightAware Transoceanic
Sun 02:47:00 AM 24.3206 -176.1893 282° West 471 542 38,000  Level FlightAware Transoceanic
Sun 02:48:00 AM 24.3474 -176.3297 282° West 471 542 38,000  Level FlightAware Transoceanic
Sun 02:49:00 AM 24.3742 -176.4701 282° West 471 542 38,000  Level FlightAware Transoceanic
Sun 02:50:00 AM 24.4008 -176.6106 282° West 471 542 38,000  Level FlightAware Transoceanic
Sun 02:51:00 AM 24.4192 -176.6835 282° West 468 539 38,000  Level FlightAware Transoceanic
Sun 02:52:00 AM 24.4459 -176.8270 282° West 468 539 38,000  Level FlightAware Transoceanic
Sun 02:53:00 AM 24.4725 -176.9706 281° West 468 539 38,000  Level FlightAware Transoceanic
Sun 02:54:00 AM 24.4990 -177.1143 281° West 468 539 38,000  Level FlightAware Transoceanic
Sun 02:55:00 AM 24.5254 -177.2580 281° West 468 539 38,000  Level FlightAware Transoceanic
Sun 02:56:00 AM 24.5516 -177.4018 281° West 468 539 38,000  Level FlightAware Transoceanic
Sun 02:57:00 AM 24.5777 -177.5457 281° West 468 539 38,000  Level FlightAware Transoceanic
Sun 02:58:00 AM 24.6036 -177.6895 281° West 468 539 38,000  Level FlightAware Transoceanic
Sun 02:59:00 AM 24.6294 -177.8335 281° West 468 539 38,000  Level FlightAware Transoceanic
Sun 03:00:00 AM 24.6551 -177.9776 281° West 468 539 38,000  Level FlightAware Transoceanic
Sun 03:01:00 AM 24.6807 -178.1216 281° West 468 539 38,000  Level FlightAware Transoceanic
Sun 03:02:00 AM 24.7061 -178.2658 281° West 468 539 38,000  Level FlightAware Transoceanic
Sun 03:03:00 AM 24.7313 -178.4100 281° West 468 539 38,000  Level FlightAware Transoceanic
Sun 03:04:00 AM 24.7564 -178.5542 281° West 468 539 38,000  Level FlightAware Transoceanic
Sun 03:05:00 AM 24.7814 -178.6985 281° West 468 539 38,000  Level FlightAware Transoceanic
Sun 03:06:00 AM 24.8063 -178.8429 281° West 468 539 38,000  Level FlightAware Transoceanic
Sun 03:07:00 AM 24.8310 -178.9874 281° West 468 539 38,000  Level FlightAware Transoceanic
Sun 03:08:00 AM 24.8555 -179.1319 281° West 468 539 38,000  Level FlightAware Transoceanic
Sun 03:09:00 AM 24.8800 -179.2764 281° West 468 539 38,000  Level FlightAware Transoceanic
Sun 03:10:00 AM 24.9042 -179.4210 280° West 468 539 38,000  Level FlightAware Transoceanic
Sun 03:11:00 AM 24.9284 -179.5657 280° West 468 539 38,000  Level FlightAware Transoceanic
Sun 03:12:00 AM 24.9524 -179.7104 280° West 468 539 38,000  Level FlightAware Transoceanic
Sun 03:12:25 AM 24.9500 -179.7167 281° West 472 543 38,000  Level Oakland Oceanic (ODAPS)
Sun 03:13:00 AM 24.9763 -179.8552 280° West 468 539 38,000  Level FlightAware Transoceanic
Sun 03:14:00 AM 25.0000 -180.0000 285° West 468 539 38,000  Level FlightAware Transoceanic
Sun 03:14:26 AM 25.0000 180.0000 285° West 473 544 38,000  Level Oakland Oceanic (ODAPS)
Sun 03:15:00 AM 25.0324 179.8635 285° West 468 539 38,000  Level FlightAware Transoceanic
Sun 03:16:00 AM 25.0647 179.7270 285° West 468 539 38,000  Level FlightAware Transoceanic
Sun 03:17:00 AM 25.0968 179.5904 285° West 468 539 38,000  Level FlightAware Transoceanic
Sun 03:18:00 AM 25.1307 179.4460 284° West 472 543 38,000  Level FlightAware Transoceanic
Sun 03:19:00 AM 25.1630 179.3073 284° West 472 543 38,000  Level FlightAware Transoceanic
Sun 03:20:00 AM 25.1980 179.1566 284° West 473 544 38,000  Level FlightAware Transoceanic
Sun 03:21:00 AM 25.2305 179.0158 284° West 473 544 38,000  Level FlightAware Transoceanic
Sun 03:22:00 AM 25.2629 178.8749 284° West 473 544 38,000  Level FlightAware Transoceanic
Sun 03:23:00 AM 25.2952 178.7339 284° West 473 544 38,000  Level FlightAware Transoceanic
Sun 03:24:00 AM 25.3273 178.5928 284° West 473 544 38,000  Level FlightAware Transoceanic
Sun 03:25:00 AM 25.3593 178.4517 284° West 473 544 38,000  Level FlightAware Transoceanic
Sun 03:26:00 AM 25.3911 178.3105 284° West 473 544 38,000  Level FlightAware Transoceanic
Sun 03:27:00 AM 25.4229 178.1692 284° West 473 544 38,000  Level FlightAware Transoceanic
Sun 03:28:00 AM 25.4545 178.0279 284° West 473 544 38,000  Level FlightAware Transoceanic
Sun 03:29:00 AM 25.4859 177.8865 284° West 473 544 38,000  Level FlightAware Transoceanic
Sun 03:30:00 AM 25.5172 177.7450 284° West 473 544 38,000  Level FlightAware Transoceanic
Sun 03:31:00 AM 25.5484 177.6034 284° West 473 544 38,000  Level FlightAware Transoceanic
Sun 03:32:00 AM 25.5795 177.4617 284° West 473 544 38,000  Level FlightAware Transoceanic
Sun 03:33:00 AM 25.6104 177.3200 284° West 473 544 38,000  Level FlightAware Transoceanic
Sun 03:34:00 AM 25.6411 177.1782 284° West 473 544 38,000  Level FlightAware Transoceanic
Sun 03:35:00 AM 25.6718 177.0364 283° West 473 544 38,000  Level FlightAware Transoceanic
Sun 03:36:00 AM 25.7023 176.8944 283° West 473 544 38,000  Level FlightAware Transoceanic
Sun 03:37:00 AM 25.7326 176.7524 283° West 473 544 38,000  Level FlightAware Transoceanic
Sun 03:38:00 AM 25.7629 176.6103 283° West 473 544 38,000  Level FlightAware Transoceanic
Sun 03:39:00 AM 25.7929 176.4682 283° West 473 544 38,000  Level FlightAware Transoceanic
Sun 03:39:06 AM 25.7833 176.5500 283° West 467 537 38,000  Level Oakland Oceanic (ODAPS)
Sun 03:40:00 AM 25.8229 176.3259 283° West 473 544 38,000  Level FlightAware Transoceanic
Sun 03:41:00 AM 25.8527 176.1836 283° West 473 544 38,000  Level FlightAware Transoceanic
Sun 03:42:00 AM 25.8824 176.0413 283° West 473 544 38,000  Level FlightAware Transoceanic
Sun 03:43:00 AM 25.9119 175.8988 283° West 473 544 38,000  Level FlightAware Transoceanic
Sun 03:44:00 AM 25.9413 175.7563 283° West 473 544 38,000  Level FlightAware Transoceanic
Sun 03:45:00 AM 25.9588 175.7036 283° West 467 537 38,000  Level FlightAware Transoceanic
Sun 03:46:00 AM 25.9876 175.5623 283° West 467 537 38,000  Level FlightAware Transoceanic
Sun 03:47:00 AM 26.0162 175.4210 283° West 467 537 38,000  Level FlightAware Transoceanic
Sun 03:48:00 AM 26.0447 175.2795 283° West 467 537 38,000  Level FlightAware Transoceanic
Sun 03:49:00 AM 26.0730 175.1380 283° West 467 537 38,000  Level FlightAware Transoceanic
Sun 03:50:00 AM 26.1012 174.9964 282° West 467 537 38,000  Level FlightAware Transoceanic
Sun 03:51:00 AM 26.1293 174.8548 282° West 467 537 38,000  Level FlightAware Transoceanic
Sun 03:52:00 AM 26.1573 174.7131 282° West 467 537 38,000  Level FlightAware Transoceanic
Sun 03:53:00 AM 26.1851 174.5713 282° West 467 537 38,000  Level FlightAware Transoceanic
Sun 03:54:00 AM 26.2127 174.4295 282° West 467 537 38,000  Level FlightAware Transoceanic
Sun 03:55:00 AM 26.2402 174.2876 282° West 467 537 38,000  Level FlightAware Transoceanic
Sun 03:56:00 AM 26.2676 174.1456 282° West 467 537 38,000  Level FlightAware Transoceanic
Sun 03:57:00 AM 26.2949 174.0035 282° West 467 537 38,000  Level FlightAware Transoceanic
Sun 03:58:00 AM 26.3220 173.8614 282° West 467 537 38,000  Level FlightAware Transoceanic
Sun 03:59:00 AM 26.3489 173.7192 282° West 467 537 38,000  Level FlightAware Transoceanic
Sun 04:00:00 AM 26.3757 173.5770 282° West 467 537 38,000  Level FlightAware Transoceanic
Sun 04:01:00 AM 26.4024 173.4346 282° West 467 537 38,000  Level FlightAware Transoceanic
Sun 04:02:00 AM 26.4290 173.2923 282° West 467 537 38,000  Level FlightAware Transoceanic
Sun 04:03:00 AM 26.4554 173.1498 282° West 467 537 38,000  Level FlightAware Transoceanic
Sun 04:04:00 AM 26.4816 173.0073 282° West 467 537 38,000  Level FlightAware Transoceanic
Sun 04:05:00 AM 26.5077 172.8647 282° West 467 537 38,000  Level FlightAware Transoceanic
Sun 04:05:46 AM 26.5167 172.8000 282° West 467 537 38,000  Level Oakland Oceanic (ODAPS)
Sun 04:06:00 AM 26.5337 172.7221 281° West 467 537 38,000  Level FlightAware Transoceanic
Sun 04:07:00 AM 26.5595 172.5794 281° West 467 537 38,000  Level FlightAware Transoceanic
Sun 04:08:00 AM 26.5852 172.4366 281° West 467 537 38,000  Level FlightAware Transoceanic
Sun 04:09:00 AM 26.6108 172.2938 281° West 467 537 38,000  Level FlightAware Transoceanic
Sun 04:10:00 AM 26.6362 172.1509 281° West 467 537 38,000  Level FlightAware Transoceanic
Sun 04:11:00 AM 26.6615 172.0079 281° West 467 537 38,000  Level FlightAware Transoceanic
Sun 04:12:00 AM 26.6752 171.9184 281° West 467 537 38,000  Level FlightAware Transoceanic
Sun 04:13:00 AM 26.7011 171.7712 281° West 467 537 38,000  Level FlightAware Transoceanic
Sun 04:14:00 AM 26.7269 171.6240 281° West 467 537 38,000  Level FlightAware Transoceanic
Sun 04:15:00 AM 26.7525 171.4767 281° West 467 537 38,000  Level FlightAware Transoceanic
Sun 04:16:00 AM 26.7779 171.3293 281° West 467 537 38,000  Level FlightAware Transoceanic
Sun 04:17:00 AM 26.8032 171.1818 281° West 467 537 38,000  Level FlightAware Transoceanic
Sun 04:18:00 AM 26.8283 171.0343 281° West 467 537 38,000  Level FlightAware Transoceanic
Sun 04:19:00 AM 26.8533 170.8868 281° West 467 537 38,000  Level FlightAware Transoceanic
Sun 04:20:00 AM 26.8782 170.7391 281° West 467 537 38,000  Level FlightAware Transoceanic
Sun 04:21:00 AM 26.9028 170.5914 281° West 467 537 38,000  Level FlightAware Transoceanic
Sun 04:22:00 AM 26.9273 170.4437 281° West 467 537 38,000  Level FlightAware Transoceanic
Sun 04:23:00 AM 26.9517 170.2959 280° West 467 537 38,000  Level FlightAware Transoceanic
Sun 04:24:00 AM 26.9759 170.1479 280° West 467 537 38,000  Level FlightAware Transoceanic
Sun 04:25:00 AM 27.0000 170.0000 291° West 467 537 38,000  Level FlightAware Transoceanic
Sun 04:25:36 AM 27.0000 170.0000 291° West 466 536 38,000  Level Oakland Oceanic (ODAPS)
Sun 04:26:00 AM 27.0452 169.8680 291° West 467 537 38,000  Level FlightAware Transoceanic
Sun 04:27:00 AM 27.0903 169.7358 291° West 467 537 38,000  Level FlightAware Transoceanic
Sun 04:28:00 AM 27.1353 169.6036 291° West 467 537 38,000  Level FlightAware Transoceanic
Sun 04:29:00 AM 27.1802 169.4713 291° West 467 537 38,000  Level FlightAware Transoceanic
Sun 04:30:00 AM 27.2250 169.3388 291° West 467 537 38,000  Level FlightAware Transoceanic
Sun 04:31:00 AM 27.2696 169.2063 291° West 467 537 38,000  Level FlightAware Transoceanic
Sun 04:32:00 AM 27.3218 169.0504 291° West 466 536 38,000  Level FlightAware Transoceanic
Sun 04:32:26 AM 27.3167 169.0667 291° West 463 533 38,000  Level Oakland Oceanic (ODAPS)
Sun 04:33:00 AM 27.3673 168.9142 291° West 466 536 38,000  Level FlightAware Transoceanic
Sun 04:34:00 AM 27.4126 168.7780 291° West 466 536 38,000  Level FlightAware Transoceanic
Sun 04:35:00 AM 27.4578 168.6417 290° West 466 536 38,000  Level FlightAware Transoceanic
Sun 04:36:00 AM 27.5028 168.5052 290° West 466 536 38,000  Level FlightAware Transoceanic
Sun 04:37:00 AM 27.5478 168.3687 290° West 466 536 38,000  Level FlightAware Transoceanic
Sun 04:38:00 AM 27.5805 168.2696 290° West 463 533 38,000  Level FlightAware Transoceanic
Sun 04:39:00 AM 27.6240 168.1364 290° West 463 533 38,000  Level FlightAware Transoceanic
Sun 04:40:00 AM 27.6674 168.0031 290° West 463 533 38,000  Level FlightAware Transoceanic
Sun 04:41:00 AM 27.7107 167.8697 290° West 463 533 38,000  Level FlightAware Transoceanic
Sun 04:42:00 AM 27.7538 167.7362 290° West 463 533 38,000  Level FlightAware Transoceanic
Sun 04:43:00 AM 27.7968 167.6026 290° West 463 533 38,000  Level FlightAware Transoceanic
Sun 04:44:00 AM 27.8397 167.4688 290° West 463 533 38,000  Level FlightAware Transoceanic
Sun 04:45:00 AM 27.8825 167.3350 290° West 463 533 38,000  Level FlightAware Transoceanic
Sun 04:46:00 AM 27.9251 167.2010 290° West 463 533 38,000  Level FlightAware Transoceanic
Sun 04:47:00 AM 27.9676 167.0670 290° West 463 533 38,000  Level FlightAware Transoceanic
Sun 04:48:00 AM 28.0100 166.9328 290° West 463 533 38,000  Level FlightAware Transoceanic
Sun 04:49:00 AM 28.0522 166.7986 290° West 463 533 38,000  Level FlightAware Transoceanic
Sun 04:50:00 AM 28.0943 166.6642 290° West 463 533 38,000  Level FlightAware Transoceanic
Sun 04:51:00 AM 28.1363 166.5297 289° West 463 533 38,000  Level FlightAware Transoceanic
Sun 04:52:00 AM 28.1782 166.3951 289° West 463 533 38,000  Level FlightAware Transoceanic
Sun 04:53:00 AM 28.2199 166.2604 289° West 463 533 38,000  Level FlightAware Transoceanic
Sun 04:54:00 AM 28.2614 166.1257 289° West 463 533 38,000  Level FlightAware Transoceanic
Sun 04:55:00 AM 28.3029 165.9908 289° West 463 533 38,000  Level FlightAware Transoceanic
Sun 04:56:00 AM 28.3442 165.8558 289° West 463 533 38,000  Level FlightAware Transoceanic
Sun 04:57:00 AM 28.3854 165.7207 289° West 463 533 38,000  Level FlightAware Transoceanic
Sun 04:58:00 AM 28.4264 165.5854 289° West 463 533 38,000  Level FlightAware Transoceanic
Sun 04:59:00 AM 28.4674 165.4501 289° West 463 533 38,000  Level FlightAware Transoceanic
Sun 04:59:07 AM 28.4667 165.4333 289° West 448 516 38,000  Level Oakland Oceanic (ODAPS)
Sun 05:00:00 AM 28.5081 165.3147 289° West 463 533 38,000  Level FlightAware Transoceanic
Sun 05:01:00 AM 28.5488 165.1792 289° West 463 533 38,000  Level FlightAware Transoceanic
Sun 05:02:00 AM 28.5893 165.0436 289° West 463 533 38,000  Level FlightAware Transoceanic
Sun 05:03:00 AM 28.6297 164.9078 289° West 463 533 38,000  Level FlightAware Transoceanic
Sun 05:04:00 AM 28.6699 164.7720 289° West 463 533 38,000  Level FlightAware Transoceanic
Sun 05:05:00 AM 28.7099 164.6336 289° West 448 516 38,000  Level FlightAware Transoceanic
Sun 05:06:00 AM 28.7500 164.5000 289° West 448 516 38,000  Level FlightAware Transoceanic
Sun 05:07:00 AM 28.7889 164.3692 289° West 448 516 38,000  Level FlightAware Transoceanic
Sun 05:08:00 AM 28.8277 164.2384 289° West 448 516 38,000  Level FlightAware Transoceanic
Sun 05:09:00 AM 28.8663 164.1074 289° West 448 516 38,000  Level FlightAware Transoceanic
Sun 05:10:00 AM 28.9048 163.9764 289° West 448 516 38,000  Level FlightAware Transoceanic
Sun 05:11:00 AM 28.9432 163.8452 288° West 448 516 38,000  Level FlightAware Transoceanic
Sun 05:12:00 AM 28.9815 163.7140 288° West 448 516 38,000  Level FlightAware Transoceanic
Sun 05:13:00 AM 29.0196 163.5826 288° West 448 516 38,000  Level FlightAware Transoceanic
Sun 05:14:00 AM 29.0576 163.4512 288° West 448 516 38,000  Level FlightAware Transoceanic
Sun 05:15:00 AM 29.0955 163.3196 288° West 448 516 38,000  Level FlightAware Transoceanic
Sun 05:16:00 AM 29.1332 163.1880 288° West 448 516 38,000  Level FlightAware Transoceanic
Sun 05:17:00 AM 29.1709 163.0562 288° West 448 516 38,000  Level FlightAware Transoceanic
Sun 05:18:00 AM 29.2084 162.9244 288° West 448 516 38,000  Level FlightAware Transoceanic
Sun 05:19:00 AM 29.2457 162.7925 288° West 448 516 38,000  Level FlightAware Transoceanic
Sun 05:20:00 AM 29.2830 162.6605 288° West 448 516 38,000  Level FlightAware Transoceanic
Sun 05:21:00 AM 29.3201 162.5284 288° West 448 516 38,000  Level FlightAware Transoceanic
Sun 05:22:00 AM 29.3570 162.3961 288° West 448 516 38,000  Level FlightAware Transoceanic
Sun 05:23:00 AM 29.3939 162.2638 288° West 448 516 38,000  Level FlightAware Transoceanic
Sun 05:24:00 AM 29.4306 162.1314 288° West 448 516 38,000  Level FlightAware Transoceanic
Sun 05:25:00 AM 29.4672 161.9989 288° West 448 516 38,000  Level FlightAware Transoceanic
Sun 05:26:00 AM 29.5036 161.8663 287° West 448 516 38,000  Level FlightAware Transoceanic
Sun 05:27:00 AM 29.5400 161.7336 287° West 448 516 38,000  Level FlightAware Transoceanic
Sun 05:28:00 AM 29.5762 161.6008 287° West 448 516 38,000  Level FlightAware Transoceanic
Sun 05:29:00 AM 29.6122 161.4680 287° West 448 516 38,000  Level FlightAware Transoceanic
Sun 05:30:00 AM 29.6481 161.3350 287° West 448 516 38,000  Level FlightAware Transoceanic
Sun 05:31:00 AM 29.6839 161.2019 287° West 448 516 38,000  Level FlightAware Transoceanic
Sun 05:32:00 AM 29.7196 161.0687 287° West 448 516 38,000  Level FlightAware Transoceanic
Sun 05:33:00 AM 29.7551 160.9355 287° West 448 516 38,000  Level FlightAware Transoceanic
Sun 05:34:00 AM 29.7905 160.8021 287° West 448 516 38,000  Level FlightAware Transoceanic
Sun 05:35:00 AM 29.8257 160.6687 287° West 448 516 38,000  Level FlightAware Transoceanic
Sun 05:36:00 AM 29.8609 160.5351 287° West 448 516 38,000  Level FlightAware Transoceanic
Sun 05:37:00 AM 29.8958 160.4015 287° West 448 516 38,000  Level FlightAware Transoceanic
Sun 05:38:00 AM 29.9307 160.2677 287° West 448 516 38,000  Level FlightAware Transoceanic
Sun 05:39:00 AM 29.9654 160.1339 287° West 448 516 38,000 -15 Level FlightAware Transoceanic
Sun 05:40:00 AM 29.9996 160.0015 287° West  Level FlightAware Approximate
Sun 05:41:00 AM 30.0339 159.8692 287° West  Level FlightAware Approximate
Sun 05:42:00 AM 30.0544 159.8809 298° West  Level FlightAware Approximate
Sun 05:43:00 AM 30.1100 159.7588 298° West  Level FlightAware Approximate
Sun 05:44:00 AM 30.1655 159.6365 298° West  Level FlightAware Approximate
Sun 05:45:00 AM 30.2209 159.5141 298° West  Level FlightAware Approximate
Sun 05:46:00 AM 30.2762 159.3916 298° West  Level FlightAware Approximate
Sun 05:47:00 AM 30.3313 159.2689 298° West  Level FlightAware Approximate
Sun 05:48:00 AM 30.3864 159.1461 297° West  Level FlightAware Approximate
Sun 05:49:00 AM 30.4413 159.0232 297° West  Level FlightAware Approximate
Sun 05:50:00 AM 30.4961 158.9001 297° West  Level FlightAware Approximate
Sun 05:51:00 AM 30.5508 158.7769 297° West  Level FlightAware Approximate
Sun 05:52:00 AM 30.6054 158.6535 297° West  Level FlightAware Approximate
Sun 05:53:00 AM 30.6598 158.5301 297° West  Level FlightAware Approximate
Sun 05:54:00 AM 30.7142 158.4064 297° West  Level FlightAware Approximate
Sun 05:55:00 AM 30.7684 158.2827 297° West  Level FlightAware Approximate
Sun 05:56:00 AM 30.8225 158.1588 297° West  Level FlightAware Approximate
Sun 05:57:00 AM 30.8765 158.0347 297° West  Level FlightAware Approximate
Sun 05:58:00 AM 30.9304 157.9105 297° West  Level FlightAware Approximate
Sun 05:59:00 AM 30.9841 157.7862 297° West  Level FlightAware Approximate
Sun 06:00:00 AM 31.0378 157.6617 297° West  Level FlightAware Approximate
Sun 06:01:00 AM 31.0913 157.5371 297° West  Level FlightAware Approximate
Sun 06:02:00 AM 31.1447 157.4124 297° West  Level FlightAware Approximate
Sun 06:03:00 AM 31.1980 157.2875 297° West  Level FlightAware Approximate
Sun 06:04:00 AM 31.2511 157.1624 296° West  Level FlightAware Approximate
Sun 06:05:00 AM 31.3041 157.0373 296° West  Level FlightAware Approximate
Sun 06:06:00 AM 31.3571 156.9120 296° West  Level FlightAware Approximate
Sun 06:07:00 AM 31.4098 156.7865 296° West  Level FlightAware Approximate
Sun 06:08:00 AM 31.4625 156.6609 296° West  Level FlightAware Approximate
Sun 06:09:00 AM 31.5151 156.5352 296° West  Level FlightAware Approximate
Sun 06:10:00 AM 31.5675 156.4093 296° West  Level FlightAware Approximate
Sun 06:11:00 AM 31.6198 156.2833 296° West  Level FlightAware Approximate
Sun 06:12:00 AM 31.6719 156.1571 296° West  Level FlightAware Approximate
Sun 06:13:00 AM 31.7240 156.0308 296° West  Level FlightAware Approximate
Sun 06:14:00 AM 31.7759 155.9044 296° West  Level FlightAware Approximate
Sun 06:15:00 AM 31.8277 155.7778 296° West  Level FlightAware Approximate
Sun 06:16:00 AM 31.8794 155.6510 296° West  Level FlightAware Approximate
Sun 06:17:00 AM 31.9310 155.5242 296° West  Level FlightAware Approximate
Sun 06:18:00 AM 31.9824 155.3972 296° West  Level FlightAware Approximate
Sun 06:19:00 AM 32.0337 155.2700 295° West  Level FlightAware Approximate
Sun 06:20:00 AM 32.0848 155.1427 295° West  Level FlightAware Approximate
Sun 06:21:00 AM 32.1359 155.0153 295° West  Level FlightAware Approximate
Sun 06:22:00 AM 32.1868 154.8877 295° West  Level FlightAware Approximate
Sun 06:23:00 AM 32.2376 154.7600 295° West  Level FlightAware Approximate
Sun 06:24:00 AM 32.2882 154.6321 295° West  Level FlightAware Approximate
Sun 06:25:00 AM 32.3388 154.5041 295° West  Level FlightAware Approximate
Sun 06:26:00 AM 32.3892 154.3759 295° West  Level FlightAware Approximate
Sun 06:27:00 AM 32.4394 154.2476 295° West  Level FlightAware Approximate
Sun 06:28:00 AM 32.4896 154.1192 295° West  Level FlightAware Approximate
Sun 06:29:00 AM 32.5396 153.9906 295° West  Level FlightAware Approximate
Sun 06:30:00 AM 32.5895 153.8619 295° West  Level FlightAware Approximate
Sun 06:31:00 AM 32.6392 153.7330 295° West  Level FlightAware Approximate
Sun 06:32:00 AM 32.6888 153.6040 295° West  Level FlightAware Approximate
Sun 06:33:00 AM 32.7383 153.4749 295° West  Level FlightAware Approximate
Sun 06:34:00 AM 32.7877 153.3456 294° West  Level FlightAware Approximate
Sun 06:35:00 AM 32.8369 153.2161 294° West  Level FlightAware Approximate
Sun 06:36:00 AM 32.8860 153.0865 294° West  Level FlightAware Approximate
Sun 06:37:00 AM 32.9349 152.9568 294° West  Level FlightAware Approximate
Sun 06:38:00 AM 32.9837 152.8269 294° West  Level FlightAware Approximate
Sun 06:39:00 AM 33.0324 152.6969 294° West  Level FlightAware Approximate
Sun 06:40:00 AM 33.0810 152.5667 294° West  Level FlightAware Approximate
Sun 06:41:00 AM 33.1294 152.4364 294° West  Level FlightAware Approximate
Sun 06:42:00 AM 33.1776 152.3060 294° West  Level FlightAware Approximate
Sun 06:43:00 AM 33.2258 152.1754 294° West  Level FlightAware Approximate
Sun 06:44:00 AM 33.2738 152.0447 294° West  Level FlightAware Approximate
Sun 06:45:00 AM 33.3216 151.9138 294° West  Level FlightAware Approximate
Sun 06:46:00 AM 33.3694 151.7828 294° West  Level FlightAware Approximate
Sun 06:47:00 AM 33.4170 151.6516 294° West  Level FlightAware Approximate
Sun 06:48:00 AM 33.4644 151.5203 293° West  Level FlightAware Approximate
Sun 06:49:00 AM 33.5117 151.3889 293° West  Level FlightAware Approximate
Sun 06:50:00 AM 33.5589 151.2572 293° West  Level FlightAware Approximate
Sun 06:51:00 AM 33.6059 151.1255 293° West  Level FlightAware Approximate
Sun 06:52:00 AM 33.6528 150.9936 293° West  Level FlightAware Approximate
Sun 06:53:00 AM 33.6996 150.8616 293° West  Level FlightAware Approximate
Sun 06:54:00 AM 33.7462 150.7294 293° West  Level FlightAware Approximate
Sun 06:55:00 AM 33.7926 150.5971 293° West  Level FlightAware Approximate
Sun 06:56:00 AM 33.8390 150.4647 293° West  Level FlightAware Approximate
Sun 06:57:00 AM 33.8852 150.3321 293° West  Level FlightAware Approximate
Sun 06:58:00 AM 33.9312 150.1993 293° West  Level FlightAware Approximate
Sun 06:59:00 AM 33.9771 150.0664 293° West  Level FlightAware Approximate
Sun 07:00:00 AM 34.0232 149.9335 293° West  Level FlightAware Approximate
Sun 07:01:00 AM 34.0695 149.8007 293° West  Level FlightAware Approximate
Sun 07:02:00 AM 34.1156 149.6677 293° West  Level FlightAware Approximate
Sun 07:03:00 AM 34.1615 149.5345 293° West  Level FlightAware Approximate
Sun 07:04:00 AM 34.2073 149.4012 293° West  Level FlightAware Approximate
Sun 07:05:00 AM 34.2530 149.2678 293° West  Level FlightAware Approximate
Sun 07:06:00 AM 34.2985 149.1342 292° West  Level FlightAware Approximate
Sun 07:07:00 AM 34.3439 149.0005 292° West  Level FlightAware Approximate
Sun 07:08:00 AM 34.3892 148.8666 292° West  Level FlightAware Approximate
Sun 07:09:00 AM 34.4342 148.7326 292° West  Level FlightAware Approximate
Sun 07:10:00 AM 34.4789 148.5993 292° West  Level FlightAware Approximate
Sun 07:11:00 AM 34.5234 148.4658 292° West  Level FlightAware Approximate
Sun 07:12:00 AM 34.5678 148.3322 292° West  Level FlightAware Approximate
Sun 07:13:00 AM 34.6120 148.1984 292° West  Level FlightAware Approximate
Sun 07:14:00 AM 34.6561 148.0645 292° West  Level FlightAware Approximate
Sun 07:15:00 AM 34.7001 147.9305 292° West  Level FlightAware Approximate
Sun 07:16:00 AM 34.7439 147.7963 292° West  Level FlightAware Approximate
Sun 07:17:00 AM 34.7875 147.6620 292° West  Level FlightAware Approximate
Sun 07:18:00 AM 34.8310 147.5276 292° West  Level FlightAware Approximate
Sun 07:19:00 AM 34.8743 147.3929 291° West  Level FlightAware Approximate
Sun 07:20:00 AM 34.9175 147.2582 291° West  Level FlightAware Approximate
Sun 07:21:00 AM 34.9606 147.1233 291° West  Level FlightAware Approximate
Sun 07:22:00 AM 35.0035 146.9883 291° West  Level FlightAware Approximate
Sun 07:23:00 AM 35.0462 146.8531 291° West  Level FlightAware Approximate
Sun 07:24:00 AM 35.0888 146.7178 291° West  Level FlightAware Approximate
Sun 07:25:00 AM 35.1313 146.5823 291° West  Level FlightAware Approximate
Sun 07:26:00 AM 35.1736 146.4467 291° West  Level FlightAware Approximate
Sun 07:27:00 AM 35.2157 146.3110 291° West  Level FlightAware Approximate
Sun 07:28:00 AM 35.2577 146.1751 291° West  Level FlightAware Approximate
Sun 07:29:00 AM 35.2996 146.0391 291° West  Level FlightAware Approximate
Sun 07:30:00 AM 35.3146 145.8975 268° West  Level FlightAware Approximate
Sun 07:31:00 AM 35.3110 145.7522 268° West  Level FlightAware Approximate
Sun 07:32:00 AM 35.3072 145.6069 268° West  Level FlightAware Approximate
Sun 07:33:00 AM 35.3032 145.4615 268° West  Level FlightAware Approximate
Sun 07:34:00 AM 35.2988 145.3163 267° West  Level FlightAware Approximate
Sun 07:35:00 AM 35.2933 145.1710 267° West  Level FlightAware Approximate
Sun 07:36:00 AM 35.2877 145.0258 267° West  Level FlightAware Approximate
Sun 07:37:00 AM 35.2819 144.8806 267° West  Level FlightAware Approximate
Sun 07:38:00 AM 35.2760 144.7354 267° West  Level FlightAware Approximate
Sun 07:39:00 AM 35.2698 144.5903 267° West  Level FlightAware Approximate
Sun 07:40:00 AM 35.2635 144.4452 267° West  Level FlightAware Approximate
Sun 07:41:00 AM 35.2570 144.3001 267° West  Level FlightAware Approximate
Sun 07:42:00 AM 35.2504 144.1550 267° West  Level FlightAware Approximate
Sun 07:43:00 AM 35.2435 144.0099 267° West  Level FlightAware Approximate
Sun 07:44:00 AM 35.2365 143.8649 267° West  Level FlightAware Approximate
Sun 07:45:00 AM 35.2404 143.7202 276° West  Level FlightAware Approximate
Sun 07:46:00 AM 35.2531 143.5757 276° West  Level FlightAware Approximate
Sun 07:47:00 AM 35.2655 143.4312 276° West  Level FlightAware Approximate
Sun 07:48:00 AM 35.2779 143.2867 276° West  Level FlightAware Approximate
Sun 07:49:00 AM 35.2900 143.1420 276° West  Level FlightAware Approximate
Sun 07:50:00 AM 35.3020 142.9974 276° West  Level FlightAware Approximate
Sun 07:51:00 AM 35.3138 142.8527 276° West  Level FlightAware Approximate
Sun 07:52:00 AM 35.3288 142.7085 278° West  Level FlightAware Approximate
Sun 07:52:52 AM 35.2320 144.2960 278° West 387 445 36,000  Level FlightAware ADS-B
Sun 07:53:00 AM 35.3448 142.5643 278° West  Level FlightAware Approximate
Sun 07:53:37 AM 35.2220 144.2110 262° West 387 445 36,000  Level FlightAware ADS-B
Sun 07:54:17 AM 35.2130 144.1380 261° West 387 445 36,000  Level FlightAware ADS-B
Sun 07:55:07 AM 35.1950 144.0110 260° West 393 452 36,000  Level FlightAware ADS-B
Sun 07:57:00 AM 35.2225 143.7396 277° West  Level Estimated
Sun 07:58:00 AM 35.2368 143.5954 277° West  Level Estimated
Sun 07:58:32 AM 35.1340 143.5440 277° West 403 464 36,000  Level FlightAware ADS-B
Sun 07:59:17 AM 35.1220 143.4520 261° West 403 464 36,000  Level FlightAware ADS-B
Sun 08:01:00 AM 35.1939 143.2189 291° West  Level FlightAware Approximate
Sun 08:01:12 AM 35.0890 143.2080 291° West 400 460 36,000  Level FlightAware ADS-B
Sun 08:02:42 AM 35.0610 143.0000 261° West 402 463 36,000  Level FlightAware ADS-B
Sun 08:04:37 AM 35.0230 142.7270 260° West 407 468 36,000 -35 Level FlightAware ADS-B
Sun 08:05:32 AM 35.0070 142.6110 260° West 403 464 35,900 -960 Descending FlightAware ADS-B
Sun 08:06:17 AM 34.9940 142.5140 261° West 391 450 34,400 -2,800 Descending FlightAware ADS-B
Sun 08:07:02 AM 34.9790 142.4130 260° West 406 467 31,700 -3,200 Descending FlightAware ADS-B
Sun 08:07:32 AM 34.9700 142.3510 260° West 408 470 30,400 -2,682 Descending FlightAware ADS-B
Sun 08:08:27 AM 34.9520 142.2200 261° West 410 472 27,900 -2,541 Descending FlightAware ADS-B
Sun 08:08:57 AM 34.9420 142.1550 259° West 408 470 26,800 -2,367 Descending FlightAware ADS-B
Sun 08:11:00 AM 35.0174 141.8728 288° West  Level Estimated
Sun 08:11:27 AM 34.8930 141.8160 288° West 380 437 20,800  Level FlightAware ADS-B
Sun 08:14:00 AM 35.0069 141.4740 292° West  Level Estimated
Sun 08:14:37 AM 34.8320 141.4360 292° West 366 421 16,000  Level FlightAware ADS-B
Sun 08:15:17 AM 34.8160 141.3510 257° West 372 428 16,000  Level FlightAware ADS-B
Sun 08:16:02 AM 34.7990 141.2620 257° West 369 425 16,000  Level FlightAware ADS-B
Sun 08:16:37 AM 34.7850 141.1900 257° West 369 425 16,000  Level FlightAware ADS-B
Sun 08:17:27 AM 34.7660 141.0900 257° West 365 420 16,000  Level FlightAware ADS-B
Sun 08:17:57 AM 34.7540 141.0270 257° West 368 423 16,000  Level FlightAware ADS-B
Sun 08:18:47 AM 34.7360 140.9360 256° West 369 425 16,000  Level FlightAware ADS-B
Sun 08:19:32 AM 34.7170 140.8340 257° West 369 425 16,000 -353 Level FlightAware ADS-B
Sun 08:20:12 AM 34.7010 140.7570 256° West 367 422 15,500 -1,059 Descending FlightAware ADS-B
Sun 08:20:57 AM 34.6840 140.6670 257° West 362 417 14,500 -1,341 Descending FlightAware ADS-B
Sun 08:21:37 AM 34.6680 140.5870 256° West 363 418 13,600 -1,200 Descending FlightAware ADS-B
Sun 08:22:07 AM 34.6570 140.5280 257° West 362 417 13,100 -943 Descending FlightAware ADS-B
Sun 08:22:47 AM 34.6430 140.4530 257° West 361 415 12,500 -900 Descending FlightAware ADS-B
Sun 08:23:27 AM 34.6280 140.3680 258° West 356 410 11,900 -424 Descending FlightAware ADS-B
Sun 08:24:12 AM 34.6280 140.2820 270° West 301 346 11,900 -333 Level FlightAware ADS-B
Sun 08:24:57 AM 34.6380 140.2090 279° West 292 336 11,400 -847 Descending FlightAware ADS-B
Sun 08:25:37 AM 34.6640 140.1530 299° West 291 335 10,700 -873 Descending FlightAware ADS-B
Sun 08:25:52 AM 34.6820 140.1410 331° Northwest 290 334 10,600 -480 Descending FlightAware ADS-B
Sun 08:26:02 AM 34.6940 140.1390 352° North 290 334 10,500 -600 Descending FlightAware ADS-B
Sun 08:26:32 AM 34.7320 140.1530 17° North 292 336 10,200 -500 Descending FlightAware ADS-B
Sun 08:27:02 AM 34.7710 140.1710 21° North 291 335 10,000 -436 Descending FlightAware ADS-B
Sun 08:27:27 AM 34.8040 140.1740 North 289 333 9,800 -327 Descending FlightAware ADS-B
Sun 08:27:57 AM 34.8440 140.1770 North 282 325 9,700 -327 Descending FlightAware ADS-B
Sun 08:28:22 AM 34.8750 140.1800 North 277 319 9,500 -436 Descending FlightAware ADS-B
Sun 08:28:52 AM 34.9140 140.1820 North 275 316 9,300 -400 Descending FlightAware ADS-B
Sun 08:29:07 AM 34.9330 140.1840 North 275 316 9,200 -400 Descending FlightAware ADS-B
Sun 08:29:37 AM 34.9710 140.1860 North 274 315 9,000 -436 Descending FlightAware ADS-B
Sun 08:30:02 AM 35.0030 140.1880 North 274 315 8,800 -436 Descending FlightAware ADS-B
Sun 08:30:32 AM 35.0410 140.1910 North 273 314 8,600 -436 Descending FlightAware ADS-B
Sun 08:30:57 AM 35.0730 140.1920 North 272 313 8,400 -436 Descending FlightAware ADS-B
Sun 08:31:27 AM 35.1100 140.1950 North 272 313 8,200 -450 Descending FlightAware ADS-B
Sun 08:31:37 AM 35.1230 140.1950 360° North 271 312 8,100 -600 Descending FlightAware ADS-B
Sun 08:32:07 AM 35.1580 140.1970 North 262 302 7,800 -500 Descending FlightAware ADS-B
Sun 08:32:37 AM 35.1970 140.1990 North 262 302 7,600 -400 Descending FlightAware ADS-B
Sun 08:32:52 AM 35.2120 140.1990 360° North 256 295 7,500 -533 Descending FlightAware ADS-B
Sun 08:33:22 AM 35.2500 140.1990 360° North 239 275 7,200 -720 Descending FlightAware ADS-B
Sun 08:33:42 AM 35.2720 140.1990 360° North 246 283 6,900 -277 Descending FlightAware ADS-B
Sun 08:34:27 AM 35.3210 140.2000 North 245 282 6,900  Level FlightAware ADS-B
Sun 08:34:42 AM 35.3410 140.2010 North 246 283 6,900  Level FlightAware ADS-B
Sun 08:35:12 AM 35.3730 140.2020 North 245 282 6,900  Level FlightAware ADS-B
Sun 08:35:37 AM 35.4030 140.2020 360° North 245 282 6,900  Level FlightAware ADS-B
Sun 08:36:07 AM 35.4380 140.2030 North 245 282 6,900  Level FlightAware ADS-B
Sun 08:36:32 AM 35.4650 140.2030 360° North 239 275 6,900  Level FlightAware ADS-B
Sun 08:37:02 AM 35.5010 140.2040 North 245 282 6,900  Level FlightAware ADS-B
Sun 08:37:47 AM 35.5500 140.1980 354° North 236 272 6,900 -86 Level FlightAware ADS-B
Sun 08:38:12 AM 35.5750 140.1890 344° North 244 281 6,800 -600 Descending FlightAware ADS-B
Sun 08:38:27 AM 35.5900 140.1750 323° Northwest 249 287 6,500 -1,500 Descending FlightAware ADS-B
Sun 08:38:52 AM 35.6040 140.1410 297° West 256 295 5,800 -1,500 Descending FlightAware ADS-B
Sun 08:39:07 AM 35.6050 140.1210 274° West 260 299 5,500 -1,200 Descending FlightAware ADS-B
Sun 08:39:52 AM 35.6060 140.0590 271° West 234 269 4,600 -1,200 Descending FlightAware ADS-B
Sun 08:40:17 AM 35.6050 140.0250 268° West 208 239 4,100 -1,108 Descending FlightAware ADS-B
Sun 08:40:57 AM 35.6050 139.9800 270° West 184 212 3,400 -1,029 Descending FlightAware ADS-B
Sun 08:41:27 AM 35.6050 139.9500 270° West 174 200 2,900 -933 Descending FlightAware ADS-B
Sun 08:41:42 AM 35.6050 139.9350 270° West 169 194 2,700 -933 Descending FlightAware ADS-B
Sun 08:42:12 AM 35.6040 139.9090 267° West 149 171 2,200 -831 Descending FlightAware ADS-B
Sun 08:42:47 AM 35.6040 139.8800 270° West 140 161 1,800 -686 Descending FlightAware ADS-B
Sun 08:43:22 AM 35.6040 139.8540 270° West 133 153 1,400 -667 Descending FlightAware ADS-B
Sun 08:43:32 AM 35.6040 139.8480 270° West 133 153 1,300 -600 Descending FlightAware ADS-B
Sun 08:43:52 AM 35.6040 139.8320 270° West 133 153 1,100 -750 Descending FlightAware ADS-B
Sun 08:44:12 AM 35.6030 139.8170 265° West 130 150 800 -600 Descending FlightAware ADS-B
Sun 08:44:32 AM 35.5970 139.8040 240° Southwest 122 140 700 -533 Descending FlightAware ADS-B
Sun 08:44:57 AM 35.5870 139.7940 219° Southwest 122 140 400 -600 Descending FlightAware ADS-B
Sun 08:45:12 AM 35.5800 139.7880 215° Southwest 125 144 300 -400 Descending FlightAware ADS-B

Login

Don't have an account? Register now (free) for customized features, flight alerts, and more!